sensor_id;sensor_type;location;lat;lon;timestamp;P1;durP1;ratioP1;P2;durP2;ratioP2
179;SDS011;78;48.788;9.010;2022-12-18T00:01:31;72.37;;;22.10;;
179;SDS011;78;48.788;9.010;2022-12-18T00:03:58;68.50;;;22.30;;
179;SDS011;78;48.788;9.010;2022-12-18T00:06:25;72.60;;;22.73;;
179;SDS011;78;48.788;9.010;2022-12-18T00:08:51;70.97;;;22.00;;
179;SDS011;78;48.788;9.010;2022-12-18T00:11:19;68.43;;;21.27;;
179;SDS011;78;48.788;9.010;2022-12-18T00:13:45;67.77;;;21.03;;
179;SDS011;78;48.788;9.010;2022-12-18T00:16:12;61.80;;;21.07;;
179;SDS011;78;48.788;9.010;2022-12-18T00:18:39;75.13;;;21.70;;
179;SDS011;78;48.788;9.010;2022-12-18T00:21:06;73.97;;;22.73;;
179;SDS011;78;48.788;9.010;2022-12-18T00:23:32;69.37;;;21.60;;
179;SDS011;78;48.788;9.010;2022-12-18T00:25:59;62.93;;;20.10;;
179;SDS011;78;48.788;9.010;2022-12-18T00:28:25;64.63;;;20.07;;
179;SDS011;78;48.788;9.010;2022-12-18T00:30:51;67.90;;;20.67;;
179;SDS011;78;48.788;9.010;2022-12-18T00:33:24;67.03;;;20.97;;
179;SDS011;78;48.788;9.010;2022-12-18T00:35:51;68.37;;;21.67;;
179;SDS011;78;48.788;9.010;2022-12-18T00:38:17;64.67;;;20.00;;
179;SDS011;78;48.788;9.010;2022-12-18T00:40:43;63.00;;;21.27;;
179;SDS011;78;48.788;9.010;2022-12-18T00:43:09;63.60;;;20.50;;
179;SDS011;78;48.788;9.010;2022-12-18T00:45:36;70.83;;;20.37;;
179;SDS011;78;48.788;9.010;2022-12-18T00:48:02;60.60;;;20.20;;
179;SDS011;78;48.788;9.010;2022-12-18T00:50:28;65.67;;;21.30;;
179;SDS011;78;48.788;9.010;2022-12-18T00:52:54;65.80;;;19.87;;
179;SDS011;78;48.788;9.010;2022-12-18T00:55:20;68.00;;;19.83;;
179;SDS011;78;48.788;9.010;2022-12-18T00:57:46;73.07;;;24.50;;
179;SDS011;78;48.788;9.010;2022-12-18T01:00:12;64.10;;;21.07;;
179;SDS011;78;48.788;9.010;2022-12-18T01:02:39;71.43;;;21.40;;
179;SDS011;78;48.788;9.010;2022-12-18T01:05:06;65.20;;;20.80;;
179;SDS011;78;48.788;9.010;2022-12-18T01:07:32;61.10;;;20.87;;
179;SDS011;78;48.788;9.010;2022-12-18T01:09:58;62.13;;;19.40;;
179;SDS011;78;48.788;9.010;2022-12-18T01:12:24;60.70;;;20.30;;
179;SDS011;78;48.788;9.010;2022-12-18T01:14:50;59.10;;;18.63;;
179;SDS011;78;48.788;9.010;2022-12-18T01:17:16;66.93;;;22.27;;
179;SDS011;78;48.788;9.010;2022-12-18T01:19:42;71.07;;;20.77;;
179;SDS011;78;48.788;9.010;2022-12-18T01:22:08;69.87;;;20.80;;
179;SDS011;78;48.788;9.010;2022-12-18T01:24:34;68.87;;;20.10;;
179;SDS011;78;48.788;9.010;2022-12-18T01:27:00;72.70;;;21.47;;
179;SDS011;78;48.788;9.010;2022-12-18T01:29:26;70.10;;;20.57;;
179;SDS011;78;48.788;9.010;2022-12-18T01:31:54;64.67;;;20.80;;
179;SDS011;78;48.788;9.010;2022-12-18T01:34:20;70.87;;;21.50;;
179;SDS011;78;48.788;9.010;2022-12-18T01:36:46;59.90;;;18.90;;
179;SDS011;78;48.788;9.010;2022-12-18T01:39:13;61.97;;;20.00;;
179;SDS011;78;48.788;9.010;2022-12-18T01:41:40;63.77;;;20.10;;
179;SDS011;78;48.788;9.010;2022-12-18T01:47:10;63.30;;;20.03;;
179;SDS011;78;48.788;9.010;2022-12-18T01:49:39;61.27;;;17.57;;
179;SDS011;78;48.788;9.010;2022-12-18T01:52:05;66.83;;;20.50;;
179;SDS011;78;48.788;9.010;2022-12-18T01:54:31;71.37;;;19.37;;
179;SDS011;78;48.788;9.010;2022-12-18T01:56:57;62.17;;;19.17;;
179;SDS011;78;48.788;9.010;2022-12-18T01:59:23;60.63;;;18.20;;
179;SDS011;78;48.788;9.010;2022-12-18T02:01:49;56.33;;;19.40;;
179;SDS011;78;48.788;9.010;2022-12-18T02:04:19;66.73;;;18.93;;
179;SDS011;78;48.788;9.010;2022-12-18T02:06:45;61.67;;;19.77;;
179;SDS011;78;48.788;9.010;2022-12-18T02:09:13;64.40;;;19.83;;
179;SDS011;78;48.788;9.010;2022-12-18T02:11:56;69.63;;;20.17;;
179;SDS011;78;48.788;9.010;2022-12-18T02:14:30;61.40;;;18.90;;
179;SDS011;78;48.788;9.010;2022-12-18T02:17:00;67.40;;;20.47;;
179;SDS011;78;48.788;9.010;2022-12-18T02:19:37;69.90;;;22.13;;
179;SDS011;78;48.788;9.010;2022-12-18T02:27:07;70.47;;;21.30;;
179;SDS011;78;48.788;9.010;2022-12-18T02:32:02;56.63;;;18.93;;
179;SDS011;78;48.788;9.010;2022-12-18T02:34:31;59.40;;;20.17;;
179;SDS011;78;48.788;9.010;2022-12-18T02:36:58;56.63;;;20.03;;
179;SDS011;78;48.788;9.010;2022-12-18T02:39:25;61.47;;;21.70;;
179;SDS011;78;48.788;9.010;2022-12-18T02:41:52;69.23;;;21.17;;
179;SDS011;78;48.788;9.010;2022-12-18T02:44:19;66.10;;;20.17;;
179;SDS011;78;48.788;9.010;2022-12-18T02:46:46;61.77;;;19.00;;
179;SDS011;78;48.788;9.010;2022-12-18T02:49:23;65.90;;;20.17;;
179;SDS011;78;48.788;9.010;2022-12-18T02:57:02;57.43;;;19.00;;
179;SDS011;78;48.788;9.010;2022-12-18T02:59:34;71.57;;;18.97;;
179;SDS011;78;48.788;9.010;2022-12-18T03:02:48;64.70;;;20.97;;
179;SDS011;78;48.788;9.010;2022-12-18T03:05:01;65.13;;;20.20;;
179;SDS011;78;48.788;9.010;2022-12-18T03:07:42;76.70;;;20.97;;
179;SDS011;78;48.788;9.010;2022-12-18T03:10:11;61.50;;;20.30;;
179;SDS011;78;48.788;9.010;2022-12-18T03:12:40;62.30;;;19.80;;
179;SDS011;78;48.788;9.010;2022-12-18T03:15:18;63.27;;;19.93;;
179;SDS011;78;48.788;9.010;2022-12-18T03:17:49;61.43;;;20.37;;
179;SDS011;78;48.788;9.010;2022-12-18T03:20:17;57.90;;;18.67;;
179;SDS011;78;48.788;9.010;2022-12-18T03:22:45;64.50;;;20.03;;
179;SDS011;78;48.788;9.010;2022-12-18T03:25:13;63.87;;;20.63;;
179;SDS011;78;48.788;9.010;2022-12-18T03:27:41;57.30;;;18.10;;
179;SDS011;78;48.788;9.010;2022-12-18T03:30:09;71.53;;;19.93;;
179;SDS011;78;48.788;9.010;2022-12-18T03:35:14;68.70;;;19.80;;
179;SDS011;78;48.788;9.010;2022-12-18T03:37:41;66.93;;;20.60;;
179;SDS011;78;48.788;9.010;2022-12-18T03:40:07;70.73;;;21.50;;
179;SDS011;78;48.788;9.010;2022-12-18T03:45:10;72.13;;;20.67;;
179;SDS011;78;48.788;9.010;2022-12-18T03:47:44;60.70;;;20.00;;
179;SDS011;78;48.788;9.010;2022-12-18T03:55:20;64.60;;;19.10;;
179;SDS011;78;48.788;9.010;2022-12-18T03:57:47;66.00;;;19.80;;
179;SDS011;78;48.788;9.010;2022-12-18T04:00:15;68.83;;;19.77;;
179;SDS011;78;48.788;9.010;2022-12-18T04:02:46;58.43;;;18.97;;
179;SDS011;78;48.788;9.010;2022-12-18T04:05:15;62.00;;;18.93;;
179;SDS011;78;48.788;9.010;2022-12-18T04:07:43;65.90;;;18.97;;
179;SDS011;78;48.788;9.010;2022-12-18T04:10:09;59.47;;;19.03;;
179;SDS011;78;48.788;9.010;2022-12-18T04:12:37;62.40;;;19.27;;
179;SDS011;78;48.788;9.010;2022-12-18T04:15:03;62.13;;;19.87;;
179;SDS011;78;48.788;9.010;2022-12-18T04:17:29;65.87;;;21.03;;
179;SDS011;78;48.788;9.010;2022-12-18T04:19:56;62.03;;;19.73;;
179;SDS011;78;48.788;9.010;2022-12-18T04:22:22;61.53;;;19.27;;
179;SDS011;78;48.788;9.010;2022-12-18T04:24:48;67.10;;;20.43;;
179;SDS011;78;48.788;9.010;2022-12-18T04:27:15;54.53;;;18.43;;
179;SDS011;78;48.788;9.010;2022-12-18T04:29:42;67.17;;;19.17;;
179;SDS011;78;48.788;9.010;2022-12-18T04:32:08;62.23;;;19.10;;
179;SDS011;78;48.788;9.010;2022-12-18T04:34:34;60.13;;;18.20;;
179;SDS011;78;48.788;9.010;2022-12-18T04:37:01;65.23;;;18.97;;
179;SDS011;78;48.788;9.010;2022-12-18T04:39:27;61.00;;;19.40;;
179;SDS011;78;48.788;9.010;2022-12-18T04:41:54;57.00;;;18.80;;
179;SDS011;78;48.788;9.010;2022-12-18T04:44:20;60.73;;;18.80;;
179;SDS011;78;48.788;9.010;2022-12-18T04:46:46;62.30;;;20.27;;
179;SDS011;78;48.788;9.010;2022-12-18T04:49:12;75.57;;;19.50;;
179;SDS011;78;48.788;9.010;2022-12-18T04:51:39;62.63;;;18.80;;
179;SDS011;78;48.788;9.010;2022-12-18T04:54:06;65.73;;;19.03;;
179;SDS011;78;48.788;9.010;2022-12-18T04:56:32;59.17;;;18.93;;
179;SDS011;78;48.788;9.010;2022-12-18T04:58:59;61.67;;;17.83;;
179;SDS011;78;48.788;9.010;2022-12-18T05:01:25;59.00;;;17.73;;
179;SDS011;78;48.788;9.010;2022-12-18T05:03:52;55.67;;;18.37;;
179;SDS011;78;48.788;9.010;2022-12-18T05:06:18;66.80;;;19.53;;
179;SDS011;78;48.788;9.010;2022-12-18T05:08:44;59.20;;;18.93;;
179;SDS011;78;48.788;9.010;2022-12-18T05:11:11;54.30;;;19.10;;
179;SDS011;78;48.788;9.010;2022-12-18T05:13:39;71.43;;;19.40;;
179;SDS011;78;48.788;9.010;2022-12-18T05:16:05;49.40;;;16.53;;
179;SDS011;78;48.788;9.010;2022-12-18T05:18:32;55.00;;;18.63;;
179;SDS011;78;48.788;9.010;2022-12-18T05:20:58;65.50;;;19.20;;
179;SDS011;78;48.788;9.010;2022-12-18T05:23:25;52.73;;;16.67;;
179;SDS011;78;48.788;9.010;2022-12-18T05:25:52;59.97;;;19.00;;
179;SDS011;78;48.788;9.010;2022-12-18T05:28:18;54.60;;;17.97;;
179;SDS011;78;48.788;9.010;2022-12-18T05:30:48;55.97;;;17.57;;
179;SDS011;78;48.788;9.010;2022-12-18T05:33:15;52.80;;;17.53;;
179;SDS011;78;48.788;9.010;2022-12-18T05:35:42;53.97;;;17.73;;
179;SDS011;78;48.788;9.010;2022-12-18T05:38:08;53.23;;;16.70;;
179;SDS011;78;48.788;9.010;2022-12-18T05:40:34;52.93;;;17.87;;
179;SDS011;78;48.788;9.010;2022-12-18T05:43:02;57.70;;;17.30;;
179;SDS011;78;48.788;9.010;2022-12-18T05:45:28;53.10;;;17.03;;
179;SDS011;78;48.788;9.010;2022-12-18T05:47:54;55.93;;;17.80;;
179;SDS011;78;48.788;9.010;2022-12-18T05:50:21;58.50;;;16.80;;
179;SDS011;78;48.788;9.010;2022-12-18T05:52:47;58.60;;;17.70;;
179;SDS011;78;48.788;9.010;2022-12-18T05:55:14;53.33;;;18.17;;
179;SDS011;78;48.788;9.010;2022-12-18T05:57:40;58.00;;;18.17;;
179;SDS011;78;48.788;9.010;2022-12-18T06:00:06;54.47;;;16.67;;
179;SDS011;78;48.788;9.010;2022-12-18T06:02:33;58.60;;;18.03;;
179;SDS011;78;48.788;9.010;2022-12-18T06:04:59;67.13;;;17.97;;
179;SDS011;78;48.788;9.010;2022-12-18T06:07:25;46.10;;;16.13;;
179;SDS011;78;48.788;9.010;2022-12-18T06:09:52;64.20;;;17.90;;
179;SDS011;78;48.788;9.010;2022-12-18T06:12:18;63.27;;;17.13;;
179;SDS011;78;48.788;9.010;2022-12-18T06:14:46;54.90;;;17.17;;
179;SDS011;78;48.788;9.010;2022-12-18T06:17:12;56.07;;;17.40;;
179;SDS011;78;48.788;9.010;2022-12-18T06:19:39;52.63;;;16.47;;
179;SDS011;78;48.788;9.010;2022-12-18T06:22:05;50.90;;;15.90;;
179;SDS011;78;48.788;9.010;2022-12-18T06:24:32;47.80;;;15.40;;
179;SDS011;78;48.788;9.010;2022-12-18T06:26:58;55.13;;;16.37;;
179;SDS011;78;48.788;9.010;2022-12-18T06:29:24;50.73;;;15.27;;
179;SDS011;78;48.788;9.010;2022-12-18T06:31:51;47.07;;;14.97;;
179;SDS011;78;48.788;9.010;2022-12-18T06:34:17;49.17;;;15.60;;
179;SDS011;78;48.788;9.010;2022-12-18T06:36:43;51.70;;;16.07;;
179;SDS011;78;48.788;9.010;2022-12-18T06:39:10;48.73;;;15.80;;
179;SDS011;78;48.788;9.010;2022-12-18T06:41:36;52.00;;;16.10;;
179;SDS011;78;48.788;9.010;2022-12-18T06:44:02;48.70;;;16.00;;
179;SDS011;78;48.788;9.010;2022-12-18T06:46:29;52.67;;;15.13;;
179;SDS011;78;48.788;9.010;2022-12-18T06:48:55;45.20;;;15.30;;
179;SDS011;78;48.788;9.010;2022-12-18T06:51:22;56.33;;;15.20;;
179;SDS011;78;48.788;9.010;2022-12-18T06:53:49;52.77;;;16.20;;
179;SDS011;78;48.788;9.010;2022-12-18T06:56:15;51.70;;;16.70;;
179;SDS011;78;48.788;9.010;2022-12-18T06:58:42;63.17;;;19.20;;
179;SDS011;78;48.788;9.010;2022-12-18T07:01:09;84.70;;;26.37;;
179;SDS011;78;48.788;9.010;2022-12-18T07:03:37;81.37;;;25.73;;
179;SDS011;78;48.788;9.010;2022-12-18T07:06:03;66.53;;;20.50;;
179;SDS011;78;48.788;9.010;2022-12-18T07:08:30;55.23;;;17.23;;
179;SDS011;78;48.788;9.010;2022-12-18T07:10:56;47.40;;;15.97;;
179;SDS011;78;48.788;9.010;2022-12-18T07:13:23;47.63;;;15.77;;
179;SDS011;78;48.788;9.010;2022-12-18T07:15:49;50.70;;;15.27;;
179;SDS011;78;48.788;9.010;2022-12-18T07:18:16;49.57;;;15.90;;
179;SDS011;78;48.788;9.010;2022-12-18T07:20:42;50.47;;;15.80;;
179;SDS011;78;48.788;9.010;2022-12-18T07:23:09;54.97;;;17.60;;
179;SDS011;78;48.788;9.010;2022-12-18T07:25:36;48.30;;;15.90;;
179;SDS011;78;48.788;9.010;2022-12-18T07:28:02;55.40;;;17.27;;
179;SDS011;78;48.788;9.010;2022-12-18T07:30:29;46.90;;;15.30;;
179;SDS011;78;48.788;9.010;2022-12-18T07:32:55;49.27;;;15.23;;
179;SDS011;78;48.788;9.010;2022-12-18T07:35:22;49.83;;;16.00;;
179;SDS011;78;48.788;9.010;2022-12-18T07:37:48;55.57;;;16.33;;
179;SDS011;78;48.788;9.010;2022-12-18T07:40:14;47.73;;;15.03;;
179;SDS011;78;48.788;9.010;2022-12-18T07:42:40;47.83;;;14.87;;
179;SDS011;78;48.788;9.010;2022-12-18T07:45:06;45.57;;;15.20;;
179;SDS011;78;48.788;9.010;2022-12-18T07:47:35;50.27;;;16.10;;
179;SDS011;78;48.788;9.010;2022-12-18T07:50:02;57.53;;;17.30;;
179;SDS011;78;48.788;9.010;2022-12-18T07:52:28;55.10;;;16.70;;
179;SDS011;78;48.788;9.010;2022-12-18T07:54:53;50.43;;;15.30;;
179;SDS011;78;48.788;9.010;2022-12-18T07:57:19;56.80;;;17.60;;
179;SDS011;78;48.788;9.010;2022-12-18T07:59:45;45.00;;;15.13;;
179;SDS011;78;48.788;9.010;2022-12-18T08:02:11;54.83;;;16.70;;
179;SDS011;78;48.788;9.010;2022-12-18T08:04:38;50.40;;;14.80;;
179;SDS011;78;48.788;9.010;2022-12-18T08:07:04;49.93;;;15.13;;
179;SDS011;78;48.788;9.010;2022-12-18T08:09:30;49.27;;;15.73;;
179;SDS011;78;48.788;9.010;2022-12-18T08:11:56;47.40;;;14.70;;
179;SDS011;78;48.788;9.010;2022-12-18T08:14:22;51.57;;;16.13;;
179;SDS011;78;48.788;9.010;2022-12-18T08:16:48;56.50;;;17.67;;
179;SDS011;78;48.788;9.010;2022-12-18T08:19:14;58.67;;;19.10;;
179;SDS011;78;48.788;9.010;2022-12-18T08:21:40;61.50;;;18.50;;
179;SDS011;78;48.788;9.010;2022-12-18T08:24:08;57.90;;;17.90;;
179;SDS011;78;48.788;9.010;2022-12-18T08:26:35;58.80;;;19.23;;
179;SDS011;78;48.788;9.010;2022-12-18T08:29:01;59.40;;;18.17;;
179;SDS011;78;48.788;9.010;2022-12-18T08:31:27;54.77;;;17.80;;
179;SDS011;78;48.788;9.010;2022-12-18T08:33:54;64.50;;;18.40;;
179;SDS011;78;48.788;9.010;2022-12-18T08:36:20;58.40;;;17.30;;
179;SDS011;78;48.788;9.010;2022-12-18T08:38:47;52.53;;;17.20;;
179;SDS011;78;48.788;9.010;2022-12-18T08:41:14;54.53;;;16.63;;
179;SDS011;78;48.788;9.010;2022-12-18T08:43:41;60.77;;;18.10;;
179;SDS011;78;48.788;9.010;2022-12-18T08:46:26;49.17;;;15.87;;
179;SDS011;78;48.788;9.010;2022-12-18T08:48:53;62.97;;;18.57;;
179;SDS011;78;48.788;9.010;2022-12-18T08:51:21;49.50;;;16.10;;
179;SDS011;78;48.788;9.010;2022-12-18T08:53:47;66.10;;;20.00;;
179;SDS011;78;48.788;9.010;2022-12-18T08:56:14;57.37;;;18.20;;
179;SDS011;78;48.788;9.010;2022-12-18T08:58:41;60.03;;;17.37;;
179;SDS011;78;48.788;9.010;2022-12-18T09:01:08;52.40;;;16.40;;
179;SDS011;78;48.788;9.010;2022-12-18T09:03:34;50.13;;;17.13;;
179;SDS011;78;48.788;9.010;2022-12-18T09:06:01;62.90;;;20.70;;
179;SDS011;78;48.788;9.010;2022-12-18T09:08:27;64.23;;;21.87;;
179;SDS011;78;48.788;9.010;2022-12-18T09:10:54;70.73;;;21.17;;
179;SDS011;78;48.788;9.010;2022-12-18T09:13:21;65.27;;;22.43;;
179;SDS011;78;48.788;9.010;2022-12-18T09:15:49;56.40;;;20.53;;
179;SDS011;78;48.788;9.010;2022-12-18T09:18:17;58.83;;;19.63;;
179;SDS011;78;48.788;9.010;2022-12-18T09:20:43;55.17;;;18.43;;
179;SDS011;78;48.788;9.010;2022-12-18T09:23:10;59.23;;;20.63;;
179;SDS011;78;48.788;9.010;2022-12-18T09:25:36;60.90;;;20.00;;
179;SDS011;78;48.788;9.010;2022-12-18T09:28:04;63.37;;;20.83;;
179;SDS011;78;48.788;9.010;2022-12-18T09:30:31;58.50;;;20.37;;
179;SDS011;78;48.788;9.010;2022-12-18T09:32:59;57.83;;;19.53;;
179;SDS011;78;48.788;9.010;2022-12-18T09:35:25;60.20;;;19.23;;
179;SDS011;78;48.788;9.010;2022-12-18T09:37:53;58.30;;;19.80;;
179;SDS011;78;48.788;9.010;2022-12-18T09:40:21;57.23;;;19.23;;
179;SDS011;78;48.788;9.010;2022-12-18T09:42:50;55.10;;;19.00;;
179;SDS011;78;48.788;9.010;2022-12-18T09:45:17;53.80;;;18.77;;
179;SDS011;78;48.788;9.010;2022-12-18T09:47:44;61.33;;;20.80;;
179;SDS011;78;48.788;9.010;2022-12-18T09:50:22;56.73;;;19.10;;
179;SDS011;78;48.788;9.010;2022-12-18T09:52:50;60.17;;;19.80;;
179;SDS011;78;48.788;9.010;2022-12-18T09:55:24;57.43;;;20.07;;
179;SDS011;78;48.788;9.010;2022-12-18T09:57:57;61.30;;;21.37;;
179;SDS011;78;48.788;9.010;2022-12-18T10:00:26;63.20;;;20.07;;
179;SDS011;78;48.788;9.010;2022-12-18T10:02:53;56.93;;;20.20;;
179;SDS011;78;48.788;9.010;2022-12-18T10:05:37;59.37;;;20.30;;
179;SDS011;78;48.788;9.010;2022-12-18T10:10:57;61.40;;;21.20;;
179;SDS011;78;48.788;9.010;2022-12-18T10:13:33;60.53;;;20.93;;
179;SDS011;78;48.788;9.010;2022-12-18T10:16:19;61.60;;;20.87;;
179;SDS011;78;48.788;9.010;2022-12-18T10:21:20;61.87;;;20.87;;
179;SDS011;78;48.788;9.010;2022-12-18T10:26:25;58.70;;;19.70;;
179;SDS011;78;48.788;9.010;2022-12-18T10:28:51;62.10;;;22.07;;
179;SDS011;78;48.788;9.010;2022-12-18T10:31:19;61.20;;;22.33;;
179;SDS011;78;48.788;9.010;2022-12-18T10:33:46;59.70;;;21.03;;
179;SDS011;78;48.788;9.010;2022-12-18T10:36:12;59.70;;;21.10;;
179;SDS011;78;48.788;9.010;2022-12-18T10:38:38;66.03;;;22.67;;
179;SDS011;78;48.788;9.010;2022-12-18T10:43:47;71.60;;;23.40;;
179;SDS011;78;48.788;9.010;2022-12-18T10:46:17;67.90;;;23.77;;
179;SDS011;78;48.788;9.010;2022-12-18T10:51:19;63.50;;;22.03;;
179;SDS011;78;48.788;9.010;2022-12-18T10:53:50;64.77;;;22.27;;
179;SDS011;78;48.788;9.010;2022-12-18T10:56:18;67.27;;;23.00;;
179;SDS011;78;48.788;9.010;2022-12-18T10:58:46;69.33;;;22.00;;
179;SDS011;78;48.788;9.010;2022-12-18T11:01:20;69.17;;;22.70;;
179;SDS011;78;48.788;9.010;2022-12-18T11:06:13;65.50;;;22.40;;
179;SDS011;78;48.788;9.010;2022-12-18T11:08:41;71.00;;;23.10;;
179;SDS011;78;48.788;9.010;2022-12-18T11:11:15;65.17;;;22.77;;
179;SDS011;78;48.788;9.010;2022-12-18T11:13:42;65.60;;;22.73;;
179;SDS011;78;48.788;9.010;2022-12-18T11:16:19;69.77;;;23.03;;
179;SDS011;78;48.788;9.010;2022-12-18T11:18:45;64.07;;;20.60;;
179;SDS011;78;48.788;9.010;2022-12-18T11:21:12;60.63;;;21.53;;
179;SDS011;78;48.788;9.010;2022-12-18T11:23:44;69.20;;;22.00;;
179;SDS011;78;48.788;9.010;2022-12-18T11:26:12;62.57;;;20.70;;
179;SDS011;78;48.788;9.010;2022-12-18T11:28:52;61.63;;;21.23;;
179;SDS011;78;48.788;9.010;2022-12-18T11:33:59;62.00;;;20.80;;
179;SDS011;78;48.788;9.010;2022-12-18T11:36:28;61.53;;;20.97;;
179;SDS011;78;48.788;9.010;2022-12-18T11:38:55;60.90;;;22.00;;
179;SDS011;78;48.788;9.010;2022-12-18T11:41:23;62.87;;;21.23;;
179;SDS011;78;48.788;9.010;2022-12-18T11:44:11;62.03;;;21.57;;
179;SDS011;78;48.788;9.010;2022-12-18T11:46:47;62.70;;;21.03;;
179;SDS011;78;48.788;9.010;2022-12-18T11:49:15;60.17;;;20.43;;
179;SDS011;78;48.788;9.010;2022-12-18T11:51:44;68.00;;;22.40;;
179;SDS011;78;48.788;9.010;2022-12-18T11:54:12;58.10;;;19.33;;
179;SDS011;78;48.788;9.010;2022-12-18T12:01:50;65.53;;;21.43;;
179;SDS011;78;48.788;9.010;2022-12-18T12:14:49;64.67;;;21.07;;
179;SDS011;78;48.788;9.010;2022-12-18T12:17:37;67.77;;;21.60;;
179;SDS011;78;48.788;9.010;2022-12-18T12:28:59;61.60;;;21.17;;
179;SDS011;78;48.788;9.010;2022-12-18T12:33:33;65.30;;;21.63;;
179;SDS011;78;48.788;9.010;2022-12-18T12:36:12;65.13;;;21.70;;
179;SDS011;78;48.788;9.010;2022-12-18T12:38:41;63.20;;;21.83;;
179;SDS011;78;48.788;9.010;2022-12-18T12:41:10;69.43;;;23.70;;
179;SDS011;78;48.788;9.010;2022-12-18T12:43:58;64.87;;;22.43;;
179;SDS011;78;48.788;9.010;2022-12-18T12:46:26;64.67;;;22.50;;
179;SDS011;78;48.788;9.010;2022-12-18T12:48:56;63.33;;;22.00;;
179;SDS011;78;48.788;9.010;2022-12-18T12:51:34;62.93;;;22.27;;
179;SDS011;78;48.788;9.010;2022-12-18T12:54:01;60.47;;;21.43;;
179;SDS011;78;48.788;9.010;2022-12-18T13:01:40;63.13;;;21.60;;
179;SDS011;78;48.788;9.010;2022-12-18T13:07:00;62.23;;;22.10;;
179;SDS011;78;48.788;9.010;2022-12-18T13:09:31;63.47;;;22.40;;
179;SDS011;78;48.788;9.010;2022-12-18T13:12:01;68.63;;;21.73;;
179;SDS011;78;48.788;9.010;2022-12-18T13:14:46;65.80;;;21.67;;
179;SDS011;78;48.788;9.010;2022-12-18T13:19:42;65.40;;;21.83;;
179;SDS011;78;48.788;9.010;2022-12-18T13:22:20;61.40;;;21.23;;
179;SDS011;78;48.788;9.010;2022-12-18T13:24:47;60.77;;;20.90;;
179;SDS011;78;48.788;9.010;2022-12-18T13:29:57;63.07;;;22.20;;
179;SDS011;78;48.788;9.010;2022-12-18T13:32:24;62.77;;;22.90;;
179;SDS011;78;48.788;9.010;2022-12-18T13:40:20;65.97;;;23.03;;
179;SDS011;78;48.788;9.010;2022-12-18T13:42:50;67.30;;;22.50;;
179;SDS011;78;48.788;9.010;2022-12-18T13:45:40;68.50;;;23.27;;
179;SDS011;78;48.788;9.010;2022-12-18T13:48:13;67.30;;;24.97;;
179;SDS011;78;48.788;9.010;2022-12-18T13:50:40;70.33;;;25.43;;
179;SDS011;78;48.788;9.010;2022-12-18T13:53:06;68.63;;;25.27;;
179;SDS011;78;48.788;9.010;2022-12-18T13:55:32;66.17;;;24.13;;
179;SDS011;78;48.788;9.010;2022-12-18T13:58:04;72.10;;;25.30;;
179;SDS011;78;48.788;9.010;2022-12-18T14:00:31;69.60;;;24.97;;
179;SDS011;78;48.788;9.010;2022-12-18T14:02:57;70.73;;;25.43;;
179;SDS011;78;48.788;9.010;2022-12-18T14:05:27;68.30;;;24.90;;
179;SDS011;78;48.788;9.010;2022-12-18T14:07:54;73.90;;;25.83;;
179;SDS011;78;48.788;9.010;2022-12-18T14:10:21;69.17;;;25.97;;
179;SDS011;78;48.788;9.010;2022-12-18T14:12:48;70.80;;;25.10;;
179;SDS011;78;48.788;9.010;2022-12-18T14:20:18;71.40;;;24.93;;
179;SDS011;78;48.788;9.010;2022-12-18T14:22:45;72.93;;;25.10;;
179;SDS011;78;48.788;9.010;2022-12-18T14:27:42;76.50;;;27.23;;
179;SDS011;78;48.788;9.010;2022-12-18T14:33:00;81.97;;;27.67;;
179;SDS011;78;48.788;9.010;2022-12-18T14:35:26;84.07;;;27.77;;
179;SDS011;78;48.788;9.010;2022-12-18T14:37:52;79.93;;;28.37;;
179;SDS011;78;48.788;9.010;2022-12-18T14:40:18;82.83;;;29.07;;
179;SDS011;78;48.788;9.010;2022-12-18T14:42:44;84.53;;;30.67;;
179;SDS011;78;48.788;9.010;2022-12-18T14:47:55;88.23;;;30.07;;
179;SDS011;78;48.788;9.010;2022-12-18T14:50:21;78.20;;;28.83;;
179;SDS011;78;48.788;9.010;2022-12-18T14:52:48;83.83;;;28.93;;
179;SDS011;78;48.788;9.010;2022-12-18T14:55:15;89.13;;;30.73;;
179;SDS011;78;48.788;9.010;2022-12-18T14:57:41;85.67;;;30.03;;
179;SDS011;78;48.788;9.010;2022-12-18T15:00:16;83.30;;;28.73;;
179;SDS011;78;48.788;9.010;2022-12-18T15:02:43;83.40;;;29.10;;
179;SDS011;78;48.788;9.010;2022-12-18T15:07:43;82.70;;;29.10;;
179;SDS011;78;48.788;9.010;2022-12-18T15:10:22;86.73;;;28.53;;
179;SDS011;78;48.788;9.010;2022-12-18T15:18:00;83.90;;;28.40;;
179;SDS011;78;48.788;9.010;2022-12-18T15:20:27;78.60;;;27.33;;
179;SDS011;78;48.788;9.010;2022-12-18T15:22:53;77.93;;;28.00;;
179;SDS011;78;48.788;9.010;2022-12-18T15:25:26;80.20;;;26.20;;
179;SDS011;78;48.788;9.010;2022-12-18T15:27:53;83.27;;;28.80;;
179;SDS011;78;48.788;9.010;2022-12-18T15:30:20;78.83;;;27.20;;
179;SDS011;78;48.788;9.010;2022-12-18T15:32:46;80.00;;;27.23;;
179;SDS011;78;48.788;9.010;2022-12-18T15:35:16;76.00;;;26.40;;
179;SDS011;78;48.788;9.010;2022-12-18T15:37:43;83.20;;;28.33;;
179;SDS011;78;48.788;9.010;2022-12-18T15:40:17;82.23;;;26.73;;
179;SDS011;78;48.788;9.010;2022-12-18T15:42:43;76.40;;;25.50;;
179;SDS011;78;48.788;9.010;2022-12-18T15:45:28;73.37;;;25.67;;
179;SDS011;78;48.788;9.010;2022-12-18T15:47:55;77.20;;;25.00;;
179;SDS011;78;48.788;9.010;2022-12-18T15:50:21;70.70;;;25.93;;
179;SDS011;78;48.788;9.010;2022-12-18T15:52:48;74.70;;;26.10;;
179;SDS011;78;48.788;9.010;2022-12-18T15:55:21;66.13;;;24.87;;
179;SDS011;78;48.788;9.010;2022-12-18T15:58:06;81.57;;;27.50;;
179;SDS011;78;48.788;9.010;2022-12-18T16:00:33;73.67;;;26.90;;
179;SDS011;78;48.788;9.010;2022-12-18T16:02:59;79.87;;;26.43;;
179;SDS011;78;48.788;9.010;2022-12-18T16:05:25;76.30;;;26.27;;
179;SDS011;78;48.788;9.010;2022-12-18T16:07:51;81.43;;;26.33;;
179;SDS011;78;48.788;9.010;2022-12-18T16:10:18;79.27;;;25.50;;
179;SDS011;78;48.788;9.010;2022-12-18T16:12:44;75.30;;;25.93;;
179;SDS011;78;48.788;9.010;2022-12-18T16:15:11;77.27;;;26.07;;
179;SDS011;78;48.788;9.010;2022-12-18T16:17:38;74.57;;;26.23;;
179;SDS011;78;48.788;9.010;2022-12-18T16:20:04;73.57;;;26.40;;
179;SDS011;78;48.788;9.010;2022-12-18T16:22:30;76.47;;;26.80;;
179;SDS011;78;48.788;9.010;2022-12-18T16:24:57;93.30;;;30.53;;
179;SDS011;78;48.788;9.010;2022-12-18T16:27:23;80.80;;;28.87;;
179;SDS011;78;48.788;9.010;2022-12-18T16:29:49;82.27;;;29.03;;
179;SDS011;78;48.788;9.010;2022-12-18T16:32:16;89.90;;;30.47;;
179;SDS011;78;48.788;9.010;2022-12-18T16:34:43;84.47;;;29.70;;
179;SDS011;78;48.788;9.010;2022-12-18T16:37:11;79.30;;;27.00;;
179;SDS011;78;48.788;9.010;2022-12-18T16:39:38;78.90;;;26.17;;
179;SDS011;78;48.788;9.010;2022-12-18T16:42:05;72.27;;;25.93;;
179;SDS011;78;48.788;9.010;2022-12-18T16:44:32;73.90;;;25.53;;
179;SDS011;78;48.788;9.010;2022-12-18T16:46:58;78.60;;;26.30;;
179;SDS011;78;48.788;9.010;2022-12-18T16:49:26;67.87;;;23.33;;
179;SDS011;78;48.788;9.010;2022-12-18T16:51:53;75.60;;;25.60;;
179;SDS011;78;48.788;9.010;2022-12-18T16:54:19;78.17;;;24.80;;
179;SDS011;78;48.788;9.010;2022-12-18T16:56:45;80.97;;;27.13;;
179;SDS011;78;48.788;9.010;2022-12-18T16:59:14;70.37;;;24.93;;
179;SDS011;78;48.788;9.010;2022-12-18T17:01:40;65.70;;;23.40;;
179;SDS011;78;48.788;9.010;2022-12-18T17:04:06;74.33;;;25.27;;
179;SDS011;78;48.788;9.010;2022-12-18T17:06:33;70.17;;;24.87;;
179;SDS011;78;48.788;9.010;2022-12-18T17:09:01;77.37;;;26.03;;
179;SDS011;78;48.788;9.010;2022-12-18T17:11:28;72.90;;;25.33;;
179;SDS011;78;48.788;9.010;2022-12-18T17:13:54;80.90;;;26.63;;
179;SDS011;78;48.788;9.010;2022-12-18T17:16:20;78.07;;;26.20;;
179;SDS011;78;48.788;9.010;2022-12-18T17:18:46;72.17;;;25.73;;
179;SDS011;78;48.788;9.010;2022-12-18T17:21:13;76.53;;;25.83;;
179;SDS011;78;48.788;9.010;2022-12-18T17:23:42;76.20;;;25.47;;
179;SDS011;78;48.788;9.010;2022-12-18T17:26:09;70.80;;;24.53;;